createdAt,value
2019-03-10T00:00:47.344Z,67.00
2019-03-10T00:04:53.838Z,67.10
2019-03-10T00:08:58.676Z,67.10
2019-03-10T00:13:03.642Z,67.10
2019-03-10T00:17:08.544Z,67.30
2019-03-10T00:21:13.488Z,67.00
2019-03-10T00:25:18.359Z,66.70
2019-03-10T00:29:23.133Z,66.70
2019-03-10T00:33:28.453Z,66.80
2019-03-10T00:37:33.248Z,66.80
2019-03-10T00:42:15.441Z,66.70
2019-03-10T00:47:01.196Z,67.00
2019-03-10T00:51:43.568Z,67.20
2019-03-10T00:55:48.428Z,67.20
2019-03-10T00:59:53.305Z,66.80
2019-03-10T01:03:58.373Z,66.60
2019-03-10T01:08:03.440Z,66.60
2019-03-10T01:12:09.896Z,65.80
2019-03-10T01:16:15.267Z,66.40
2019-03-10T01:20:20.486Z,66.10
2019-03-10T01:24:25.381Z,66.20
2019-03-10T01:28:30.108Z,65.80
2019-03-10T01:33:24.778Z,65.70
2019-03-10T01:37:29.494Z,65.10
2019-03-10T01:41:35.073Z,66.60
2019-03-10T01:45:39.793Z,66.60
2019-03-10T01:49:44.503Z,66.80
2019-03-10T01:53:49.241Z,67.40
2019-03-10T01:57:53.961Z,67.00
2019-03-10T02:01:58.792Z,66.60
2019-03-10T02:06:03.593Z,67.30
2019-03-10T02:10:09.321Z,67.10
2019-03-10T02:14:14.192Z,67.40
2019-03-10T02:18:18.912Z,67.20
2019-03-10T02:22:23.728Z,67.20
2019-03-10T02:26:29.619Z,66.90
2019-03-10T02:30:34.338Z,67.40
2019-03-10T02:34:39.131Z,67.20
2019-03-10T02:38:43.930Z,68.00
2019-03-10T02:42:48.841Z,68.60
2019-03-10T02:46:53.720Z,68.60
2019-03-10T02:50:58.608Z,68.60
2019-03-10T02:55:03.459Z,68.30
2019-03-10T02:59:08.261Z,67.90
2019-03-10T03:03:13.044Z,66.90
2019-03-10T03:07:17.816Z,65.80
2019-03-10T03:11:22.847Z,67.00
2019-03-10T03:15:27.552Z,66.70
2019-03-10T03:19:32.272Z,66.80
2019-03-10T03:23:37.327Z,66.30
2019-03-10T03:27:42.195Z,63.10
2019-03-10T03:31:46.922Z,60.70
2019-03-10T03:35:53.878Z,56.00
2019-03-10T03:39:59.931Z,54.00
2019-03-10T03:44:05.222Z,52.60
2019-03-10T03:48:10.023Z,55.30
2019-03-10T03:52:14.930Z,59.30
2019-03-10T03:56:19.717Z,63.70
2019-03-10T04:00:24.574Z,67.50
2019-03-10T04:04:29.394Z,69.90
2019-03-10T04:08:34.442Z,71.20
2019-03-10T04:12:39.342Z,71.50
2019-03-10T04:16:44.166Z,72.60
2019-03-10T04:20:49.182Z,70.30
2019-03-10T04:24:53.897Z,70.80
2019-03-10T04:28:58.611Z,70.40
2019-03-10T04:33:03.612Z,70.00
2019-03-10T04:37:08.408Z,70.10
2019-03-10T04:41:13.275Z,71.40
2019-03-10T04:45:18.015Z,73.20
2019-03-10T04:49:22.725Z,74.10
2019-03-10T04:53:28.798Z,74.60
2019-03-10T04:57:33.525Z,76.00
2019-03-10T05:01:38.343Z,76.80
2019-03-10T05:05:43.185Z,75.60
2019-03-10T05:09:47.985Z,76.20
2019-03-10T05:13:52.940Z,76.60
2019-03-10T05:17:57.741Z,76.10
2019-03-10T05:22:02.537Z,74.40
2019-03-10T05:26:07.396Z,74.80
2019-03-10T05:30:12.285Z,74.30
2019-03-10T05:34:17.123Z,74.80
2019-03-10T05:38:21.912Z,75.20
2019-03-10T05:42:26.724Z,75.00
2019-03-10T05:46:31.447Z,75.00
2019-03-10T05:50:36.192Z,74.80
2019-03-10T05:54:41.020Z,74.10
2019-03-10T05:58:45.831Z,74.70
2019-03-10T06:02:50.655Z,74.70
2019-03-10T06:06:55.368Z,74.80
2019-03-10T06:11:00.414Z,75.10
2019-03-10T06:15:05.720Z,75.60
2019-03-10T06:19:10.756Z,76.10
2019-03-10T06:23:15.887Z,76.80
2019-03-10T06:27:20.691Z,77.10
2019-03-10T06:31:25.428Z,78.10
2019-03-10T06:35:30.229Z,78.50
2019-03-10T06:39:35.015Z,78.40
2019-03-10T06:43:39.951Z,78.60
2019-03-10T06:47:44.688Z,78.80
2019-03-10T06:51:49.701Z,79.20
2019-03-10T06:55:54.420Z,79.00
2019-03-10T06:59:59.218Z,78.90
2019-03-10T07:04:04.237Z,79.00
2019-03-10T07:08:08.952Z,79.60
2019-03-10T07:12:13.894Z,78.80
2019-03-10T07:16:18.681Z,78.90
2019-03-10T07:20:23.621Z,78.20
2019-03-10T07:24:28.472Z,78.40
2019-03-10T07:28:41.080Z,77.30
2019-03-10T07:33:01.537Z,76.80
2019-03-10T07:37:34.932Z,76.60
2019-03-10T07:42:05.649Z,75.60
2019-03-10T07:46:38.848Z,75.10
2019-03-10T07:51:01.456Z,75.40
2019-03-10T07:55:24.707Z,76.30
2019-03-10T07:59:58.988Z,79.50
2019-03-10T08:04:31.749Z,81.70
2019-03-10T08:09:04.492Z,84.30
2019-03-10T08:13:17.893Z,84.10
2019-03-10T08:17:32.955Z,83.80
2019-03-10T08:21:59.814Z,83.00
2019-03-10T08:26:16.138Z,81.80
2019-03-10T08:30:36.256Z,80.60
2019-03-10T08:35:02.892Z,80.40
2019-03-10T08:39:27.026Z,79.50
2019-03-10T08:43:44.190Z,78.60
2019-03-10T08:48:09.268Z,78.20
2019-03-10T08:52:23.465Z,78.20
2019-03-10T08:56:38.371Z,77.00
2019-03-10T09:00:51.382Z,77.30
2019-03-10T09:05:08.212Z,77.60
2019-03-10T09:09:26.070Z,76.90
2019-03-10T09:13:56.132Z,77.80
2019-03-10T09:18:33.216Z,77.60
2019-03-10T09:22:52.006Z,76.90
2019-03-10T09:27:05.207Z,77.60
2019-03-10T09:31:20.398Z,78.40
2019-03-10T09:35:47.757Z,78.00
2019-03-10T09:40:10.292Z,79.00
2019-03-10T09:44:34.508Z,79.60
2019-03-10T09:48:47.441Z,80.30
2019-03-10T09:53:20.474Z,79.90
2019-03-10T09:57:46.772Z,80.30
2019-03-10T10:02:03.198Z,80.80
2019-03-10T10:06:26.885Z,81.00
2019-03-10T10:10:43.280Z,82.30
2019-03-10T10:15:19.394Z,84.10
2019-03-10T10:19:42.176Z,85.10
2019-03-10T10:23:54.726Z,86.50
2019-03-10T10:28:30.992Z,86.90
2019-03-10T10:32:46.718Z,86.60
2019-03-10T10:37:10.780Z,86.50
2019-03-10T10:41:33.808Z,87.00
2019-03-10T10:46:02.442Z,87.80
2019-03-10T10:50:26.852Z,88.20
2019-03-10T10:54:39.982Z,88.20
2019-03-10T10:59:02.954Z,88.60
2019-03-10T11:03:30.926Z,88.40
2019-03-10T11:07:53.859Z,88.80
2019-03-10T11:12:07.041Z,88.40
2019-03-10T11:16:30.956Z,88.10
2019-03-10T11:20:42.016Z,85.80
2019-03-10T11:25:12.096Z,86.00
2019-03-10T11:29:39.511Z,86.60
2019-03-10T11:34:04.940Z,86.80
2019-03-10T11:38:15.208Z,86.60
2019-03-10T11:42:37.855Z,86.00
2019-03-10T11:46:47.827Z,84.80
2019-03-10T11:51:10.435Z,83.70
2019-03-10T11:55:26.667Z,82.50
2019-03-10T12:00:00.330Z,81.80
2019-03-10T12:04:37.082Z,82.20
2019-03-10T12:08:54.605Z,80.00
2019-03-10T12:12:59.456Z,79.10
2019-03-10T12:17:04.326Z,79.20
2019-03-10T12:21:09.346Z,80.30
2019-03-10T12:25:14.319Z,79.10
2019-03-10T12:29:19.167Z,78.20
2019-03-10T12:33:24.203Z,77.40
2019-03-10T12:37:29.004Z,76.30
2019-03-10T12:41:34.032Z,74.60
2019-03-10T12:45:38.934Z,72.80
2019-03-10T12:49:43.748Z,72.00
2019-03-10T12:53:48.777Z,72.00
2019-03-10T12:57:56.336Z,71.00
2019-03-10T13:02:02.283Z,70.80
2019-03-10T13:06:07.171Z,71.80
2019-03-10T13:10:12.815Z,70.40
2019-03-10T13:14:18.095Z,70.90
2019-03-10T13:18:23.041Z,72.10
2019-03-10T13:22:28.310Z,71.60
2019-03-10T13:26:33.152Z,71.90
2019-03-10T13:30:37.941Z,70.00
2019-03-10T13:34:42.888Z,68.50
2019-03-10T13:38:47.811Z,66.10
2019-03-10T13:42:52.864Z,63.50
2019-03-10T13:46:57.661Z,64.40
2019-03-10T13:51:02.432Z,64.70
2019-03-10T13:55:08.055Z,64.80
2019-03-10T13:59:12.796Z,64.80
2019-03-10T14:03:17.747Z,64.40
2019-03-10T14:07:22.628Z,64.00
2019-03-10T14:11:28.109Z,62.60
2019-03-10T14:15:32.860Z,62.60
2019-03-10T14:19:38.833Z,60.40
2019-03-10T14:23:43.631Z,58.40
2019-03-10T14:27:48.447Z,57.90
2019-03-10T14:31:53.374Z,57.50
2019-03-10T14:35:58.093Z,57.80
2019-03-10T14:40:03.118Z,56.10
2019-03-10T14:44:08.326Z,56.50
2019-03-10T14:48:13.136Z,58.10
2019-03-10T14:52:19.747Z,58.20
2019-03-10T14:56:24.524Z,58.80
2019-03-10T15:00:29.621Z,61.20
2019-03-10T15:04:34.648Z,59.40
2019-03-10T15:08:39.525Z,58.80
2019-03-10T15:12:44.709Z,58.70
2019-03-10T15:16:49.446Z,59.30
2019-03-10T15:20:54.848Z,60.00
2019-03-10T15:24:59.725Z,60.40
2019-03-10T15:29:04.593Z,60.20
2019-03-10T15:33:09.592Z,61.40
2019-03-10T15:37:14.302Z,60.20
2019-03-10T15:41:19.477Z,59.30
2019-03-10T15:45:24.503Z,59.20
2019-03-10T15:49:29.420Z,60.40
2019-03-10T15:53:34.584Z,59.90
2019-03-10T15:57:49.310Z,60.40
2019-03-10T16:01:46.104Z,64.20
2019-03-10T16:05:50.987Z,67.60
2019-03-10T16:09:56.775Z,67.30
2019-03-10T16:14:01.711Z,66.50
2019-03-10T16:18:07.085Z,64.20
2019-03-10T16:22:12.060Z,64.50
2019-03-10T16:26:16.975Z,64.10
2019-03-10T16:30:21.903Z,63.40
2019-03-10T16:34:26.833Z,61.60
2019-03-10T16:38:31.652Z,61.50
2019-03-10T16:42:36.659Z,59.20
2019-03-10T16:46:41.548Z,59.40
2019-03-10T16:50:46.307Z,57.50
2019-03-10T16:54:51.048Z,56.50
2019-03-10T16:58:55.797Z,56.40
2019-03-10T17:03:00.986Z,56.60
2019-03-10T17:07:06.176Z,56.70
2019-03-10T17:11:12.892Z,56.50
2019-03-10T17:15:17.916Z,56.90
2019-03-10T17:19:22.663Z,56.30
2019-03-10T17:23:27.825Z,57.70
2019-03-10T17:27:32.643Z,55.60
2019-03-10T17:31:37.816Z,55.40
2019-03-10T17:35:42.812Z,56.70
2019-03-10T17:39:47.636Z,58.10
2019-03-10T17:43:52.551Z,58.90
2019-03-10T17:47:57.772Z,59.10
2019-03-10T17:52:13.802Z,59.40
2019-03-10T17:56:09.840Z,56.30
2019-03-10T18:00:16.516Z,54.90
2019-03-10T18:04:21.367Z,54.30
2019-03-10T18:08:26.230Z,55.00
2019-03-10T18:12:31.312Z,55.80
2019-03-10T18:16:36.187Z,56.50
2019-03-10T18:20:41.367Z,57.10
2019-03-10T18:24:46.172Z,56.70
2019-03-10T18:28:50.989Z,56.20
2019-03-10T18:32:56.233Z,55.50
2019-03-10T18:37:01.279Z,53.60
2019-03-10T18:41:06.224Z,52.40
2019-03-10T18:45:14.231Z,52.30
2019-03-10T18:49:19.116Z,52.00
2019-03-10T18:53:24.038Z,52.50
2019-03-10T18:57:30.040Z,53.00
2019-03-10T19:01:34.984Z,54.20
2019-03-10T19:05:40.548Z,54.70
2019-03-10T19:09:45.490Z,54.70
2019-03-10T19:13:50.392Z,55.50
2019-03-10T19:17:55.233Z,55.90
2019-03-10T19:22:00.107Z,55.90
2019-03-10T19:26:05.455Z,56.20
2019-03-10T19:30:12.469Z,56.30
2019-03-10T19:34:17.688Z,56.90
2019-03-10T19:38:22.503Z,58.00
2019-03-10T19:42:27.460Z,58.20
2019-03-10T19:46:32.373Z,58.50
2019-03-10T19:50:37.119Z,58.40
2019-03-10T19:54:42.252Z,58.90
2019-03-10T19:58:47.136Z,59.00
2019-03-10T20:02:52.191Z,58.30
2019-03-10T20:06:57.008Z,58.60
2019-03-10T20:11:01.861Z,58.50
2019-03-10T20:15:08.140Z,57.90
2019-03-10T20:19:12.973Z,58.10
2019-03-10T20:23:17.926Z,58.50
2019-03-10T20:27:22.669Z,58.70
2019-03-10T20:31:27.533Z,59.00
2019-03-10T20:35:32.329Z,58.50
2019-03-10T20:39:37.672Z,57.90
2019-03-10T20:43:42.796Z,56.90
2019-03-10T20:47:48.390Z,55.10
2019-03-10T20:51:53.479Z,55.20
2019-03-10T20:55:58.280Z,54.90
2019-03-10T21:00:03.113Z,55.30
2019-03-10T21:04:08.721Z,55.70
2019-03-10T21:08:13.467Z,56.00
2019-03-10T21:12:18.428Z,55.50
2019-03-10T21:16:25.472Z,56.10
2019-03-10T21:20:29.815Z,56.20
2019-03-10T21:24:34.862Z,58.20
2019-03-10T21:28:39.756Z,61.10
2019-03-10T21:32:45.171Z,61.20
2019-03-10T21:36:50.181Z,62.10
2019-03-10T21:40:55.491Z,60.60
2019-03-10T21:45:00.380Z,61.60
2019-03-10T21:49:05.680Z,61.80
2019-03-10T21:53:10.669Z,63.50
2019-03-10T21:57:15.407Z,65.20
2019-03-10T22:01:20.525Z,66.90
2019-03-10T22:05:25.571Z,70.90
2019-03-10T22:09:30.472Z,72.30
2019-03-10T22:13:46.100Z,73.00
2019-03-10T22:17:42.016Z,73.20
2019-03-10T22:21:47.187Z,73.80
2019-03-10T22:25:52.419Z,72.80
2019-03-10T22:29:57.982Z,72.40
2019-03-10T22:34:03.176Z,72.90
2019-03-10T22:38:08.080Z,72.10
2019-03-10T22:42:12.933Z,70.50
2019-03-10T22:46:17.779Z,71.40
2019-03-10T22:50:22.514Z,70.40
2019-03-10T22:54:27.425Z,69.90
2019-03-10T22:58:32.345Z,69.10
2019-03-10T23:02:37.727Z,68.20
2019-03-10T23:06:42.447Z,67.60
2019-03-10T23:10:47.325Z,67.00
2019-03-10T23:14:52.736Z,65.20
2019-03-10T23:18:57.540Z,64.30
2019-03-10T23:23:03.364Z,64.40
2019-03-10T23:27:08.195Z,69.80
2019-03-10T23:31:14.271Z,71.00
2019-03-10T23:35:19.284Z,70.70
2019-03-10T23:39:25.148Z,70.90
2019-03-10T23:43:30.125Z,70.80
2019-03-10T23:47:35.297Z,68.30
2019-03-10T23:51:40.699Z,68.10
2019-03-10T23:55:45.437Z,68.10
2019-03-10T23:59:50.244Z,68.60
